createdAt,value
2018-07-14T00:00:24.313Z,23.17
2018-07-14T00:02:52.971Z,23.15
2018-07-14T00:05:21.598Z,23.14
2018-07-14T00:07:50.227Z,23.12
2018-07-14T00:10:18.809Z,23.10
2018-07-14T00:12:47.367Z,23.08
2018-07-14T00:15:15.965Z,23.06
2018-07-14T00:17:44.565Z,23.04
2018-07-14T00:20:13.066Z,23.01
2018-07-14T00:22:41.702Z,22.98
2018-07-14T00:25:10.230Z,22.97
2018-07-14T00:27:38.897Z,22.96
2018-07-14T00:30:07.525Z,22.94
2018-07-14T00:32:36.088Z,22.91
2018-07-14T00:35:04.737Z,22.88
2018-07-14T00:37:33.338Z,22.87
2018-07-14T00:40:01.879Z,22.86
2018-07-14T00:42:30.477Z,22.83
2018-07-14T00:44:59.207Z,22.81
2018-07-14T00:47:28.217Z,22.78
2018-07-14T00:49:56.722Z,22.77
2018-07-14T00:52:25.428Z,22.74
2018-07-14T00:54:54.094Z,22.71
2018-07-14T00:57:22.841Z,22.69
2018-07-14T00:59:51.503Z,22.67
2018-07-14T01:02:20.252Z,22.64
2018-07-14T01:04:48.884Z,22.60
2018-07-14T01:07:17.571Z,22.57
2018-07-14T01:09:46.286Z,22.55
2018-07-14T01:12:15.031Z,22.53
2018-07-14T01:14:43.728Z,22.51
2018-07-14T01:17:12.444Z,22.50
2018-07-14T01:19:41.112Z,22.48
2018-07-14T01:22:09.819Z,22.46
2018-07-14T01:24:38.396Z,22.44
2018-07-14T01:27:06.991Z,22.42
2018-07-14T01:29:35.612Z,22.40
2018-07-14T01:32:04.189Z,22.37
2018-07-14T01:34:32.804Z,22.33
2018-07-14T01:37:01.360Z,22.30
2018-07-14T01:39:29.995Z,22.28
2018-07-14T01:41:58.562Z,22.27
2018-07-14T01:44:27.244Z,22.23
2018-07-14T01:46:55.818Z,22.20
2018-07-14T01:49:24.449Z,22.18
2018-07-14T01:51:53.061Z,22.16
2018-07-14T01:54:21.726Z,22.13
2018-07-14T01:56:50.465Z,22.13
2018-07-14T01:59:19.076Z,22.11
2018-07-14T02:01:47.685Z,22.09
2018-07-14T02:04:16.392Z,22.06
2018-07-14T02:06:45.044Z,22.04
2018-07-14T02:09:13.697Z,22.03
2018-07-14T02:11:42.265Z,22.00
2018-07-14T02:14:10.942Z,21.98
2018-07-14T02:16:39.514Z,21.96
2018-07-14T02:19:08.182Z,21.94
2018-07-14T02:21:36.846Z,21.92
2018-07-14T02:24:05.489Z,21.88
2018-07-14T02:26:34.171Z,21.86
2018-07-14T02:29:02.787Z,21.83
2018-07-14T02:31:31.444Z,21.82
2018-07-14T02:34:00.058Z,21.81
2018-07-14T02:36:28.748Z,21.79
2018-07-14T02:38:57.342Z,21.77
2018-07-14T02:41:26.008Z,21.76
2018-07-14T02:43:54.592Z,21.74
2018-07-14T02:46:23.248Z,21.73
2018-07-14T02:48:51.799Z,21.71
2018-07-14T02:51:20.396Z,21.68
2018-07-14T02:53:48.972Z,21.66
2018-07-14T02:56:17.623Z,21.65
2018-07-14T02:58:46.237Z,21.63
2018-07-14T03:01:14.880Z,21.62
2018-07-14T03:03:43.462Z,21.61
2018-07-14T03:06:12.031Z,21.60
2018-07-14T03:08:40.601Z,21.59
2018-07-14T03:11:09.228Z,21.58
2018-07-14T03:13:37.791Z,21.57
2018-07-14T03:16:06.427Z,21.55
2018-07-14T03:18:35.170Z,21.53
2018-07-14T03:21:03.715Z,21.52
2018-07-14T03:23:32.327Z,21.51
2018-07-14T03:26:00.924Z,21.51
2018-07-14T03:28:29.539Z,21.50
2018-07-14T03:30:58.313Z,21.48
2018-07-14T03:33:26.934Z,21.46
2018-07-14T03:35:55.572Z,21.45
2018-07-14T03:38:24.168Z,21.45
2018-07-14T03:40:53.168Z,21.43
2018-07-14T03:43:21.859Z,21.42
2018-07-14T03:45:50.478Z,21.42
2018-07-14T03:48:19.163Z,21.42
2018-07-14T03:50:47.839Z,21.42
2018-07-14T03:53:16.522Z,21.42
2018-07-14T03:55:45.180Z,21.41
2018-07-14T03:58:13.824Z,21.42
2018-07-14T04:00:42.516Z,21.42
2018-07-14T04:03:11.120Z,21.42
2018-07-14T04:05:39.750Z,21.39
2018-07-14T04:08:08.395Z,21.35
2018-07-14T04:10:36.922Z,21.35
2018-07-14T04:13:05.614Z,21.36
2018-07-14T04:15:34.154Z,21.37
2018-07-14T04:18:05.084Z,21.40
2018-07-14T04:20:35.003Z,21.42
2018-07-14T04:23:03.714Z,21.45
2018-07-14T04:25:33.754Z,21.46
2018-07-14T04:28:02.595Z,21.48
2018-07-14T04:30:31.299Z,21.53
2018-07-14T04:33:00.005Z,21.55
2018-07-14T04:35:28.662Z,21.60
2018-07-14T04:37:57.470Z,21.64
2018-07-14T04:40:26.365Z,21.66
2018-07-14T04:42:55.632Z,21.67
2018-07-14T04:45:25.446Z,21.65
2018-07-14T04:47:54.337Z,21.66
2018-07-14T04:50:23.537Z,21.69
2018-07-14T04:52:52.557Z,21.69
2018-07-14T04:55:21.459Z,21.66
2018-07-14T04:57:50.966Z,21.68
2018-07-14T05:00:20.059Z,21.72
2018-07-14T05:02:49.079Z,21.74
2018-07-14T05:05:18.189Z,21.77
2018-07-14T05:07:47.139Z,21.76
2018-07-14T05:10:16.039Z,21.78
2018-07-14T05:12:45.192Z,21.85
2018-07-14T05:15:14.015Z,21.87
2018-07-14T05:17:43.041Z,21.90
2018-07-14T05:20:12.072Z,21.94
2018-07-14T05:22:41.308Z,21.99
2018-07-14T05:25:10.391Z,22.05
2018-07-14T05:27:39.220Z,22.16
2018-07-14T05:30:08.175Z,22.23
2018-07-14T05:32:36.986Z,22.27
2018-07-14T05:35:05.745Z,22.33
2018-07-14T05:37:34.568Z,22.41
2018-07-14T05:40:03.448Z,22.47
2018-07-14T05:42:32.240Z,22.48
2018-07-14T05:45:01.140Z,22.56
2018-07-14T05:47:30.399Z,22.65
2018-07-14T05:49:59.142Z,22.78
2018-07-14T05:52:28.098Z,22.95
2018-07-14T05:54:56.821Z,23.14
2018-07-14T05:57:25.531Z,23.27
2018-07-14T05:59:54.187Z,23.38
2018-07-14T06:02:22.838Z,23.49
2018-07-14T06:04:51.525Z,23.67
2018-07-14T06:07:20.170Z,23.88
2018-07-14T06:09:49.417Z,24.13
2018-07-14T06:12:18.273Z,24.43
2018-07-14T06:14:47.099Z,24.66
2018-07-14T06:17:15.998Z,24.85
2018-07-14T06:19:44.879Z,25.06
2018-07-14T06:22:13.611Z,25.26
2018-07-14T06:24:42.375Z,25.40
2018-07-14T06:27:11.017Z,25.50
2018-07-14T06:29:39.665Z,25.58
2018-07-14T06:32:26.467Z,25.62
2018-07-14T06:34:55.175Z,25.66
2018-07-14T06:37:24.281Z,25.72
2018-07-14T06:39:53.728Z,25.77
2018-07-14T06:42:25.233Z,25.78
2018-07-14T06:44:55.139Z,25.82
2018-07-14T06:47:23.860Z,25.88
2018-07-14T06:49:52.604Z,25.95
2018-07-14T06:52:21.313Z,26.06
2018-07-14T06:54:50.218Z,26.20
2018-07-14T06:57:19.409Z,26.36
2018-07-14T06:59:48.106Z,26.56
2018-07-14T07:02:16.949Z,26.82
2018-07-14T07:04:45.811Z,27.17
2018-07-14T07:07:15.695Z,27.53
2018-07-14T07:09:46.764Z,27.89
2018-07-14T07:12:15.762Z,28.18
2018-07-14T07:14:45.501Z,28.49
2018-07-14T07:17:14.194Z,28.78
2018-07-14T07:19:42.882Z,29.35
2018-07-14T07:22:11.750Z,30.09
2018-07-14T07:24:40.487Z,30.74
2018-07-14T07:27:09.345Z,31.34
2018-07-14T07:29:38.070Z,31.95
2018-07-14T07:32:06.842Z,32.53
2018-07-14T07:34:35.641Z,33.16
2018-07-14T07:37:04.633Z,33.68
2018-07-14T07:39:33.346Z,34.15
2018-07-14T07:42:02.189Z,34.66
2018-07-14T07:44:31.062Z,35.15
2018-07-14T07:47:00.028Z,35.67
2018-07-14T07:49:28.925Z,36.07
2018-07-14T07:51:57.964Z,36.47
2018-07-14T07:54:27.780Z,36.86
2018-07-14T07:56:56.637Z,37.27
2018-07-14T07:59:27.847Z,37.63
2018-07-14T08:01:56.654Z,37.98
2018-07-14T08:04:27.761Z,38.32
2018-07-14T08:06:56.590Z,38.59
2018-07-14T08:09:25.809Z,38.90
2018-07-14T08:11:54.635Z,39.04
2018-07-14T08:14:23.633Z,39.11
2018-07-14T08:16:52.791Z,39.18
2018-07-14T08:19:22.230Z,39.13
2018-07-14T08:21:51.604Z,39.07
2018-07-14T08:24:21.044Z,39.11
2018-07-14T08:26:52.080Z,39.41
2018-07-14T08:29:21.199Z,39.78
2018-07-14T08:31:50.300Z,40.09
2018-07-14T08:34:19.359Z,40.43
2018-07-14T08:36:48.246Z,40.71
2018-07-14T08:39:17.187Z,41.03
2018-07-14T08:41:46.148Z,41.26
2018-07-14T08:44:15.113Z,41.44
2018-07-14T08:46:43.954Z,41.74
2018-07-14T08:49:13.481Z,42.01
2018-07-14T08:51:43.549Z,42.36
2018-07-14T08:54:13.879Z,42.62
2018-07-14T08:56:43.122Z,42.80
2018-07-14T08:59:12.685Z,42.96
2018-07-14T09:01:42.528Z,42.92
2018-07-14T09:04:13.187Z,43.18
2018-07-14T09:06:43.356Z,43.43
2018-07-14T09:09:12.503Z,43.57
2018-07-14T09:11:41.361Z,43.67
2018-07-14T09:14:10.176Z,43.90
2018-07-14T09:16:39.112Z,44.06
2018-07-14T09:19:08.143Z,44.22
2018-07-14T09:21:37.046Z,44.34
2018-07-14T09:24:05.962Z,44.65
2018-07-14T09:26:35.194Z,44.85
2018-07-14T09:29:04.156Z,45.16
2018-07-14T09:31:33.080Z,45.50
2018-07-14T09:34:02.011Z,45.89
2018-07-14T09:36:30.886Z,46.25
2018-07-14T09:38:59.767Z,46.40
2018-07-14T09:41:28.617Z,46.56
2018-07-14T09:43:57.414Z,46.77
2018-07-14T09:46:26.394Z,47.01
2018-07-14T09:48:55.441Z,47.14
2018-07-14T09:51:31.420Z,47.45
2018-07-14T09:56:57.018Z,47.82
2018-07-14T09:59:36.354Z,47.93
2018-07-14T10:02:07.227Z,47.71
2018-07-14T10:04:46.696Z,47.67
2018-07-14T10:07:15.534Z,47.67
2018-07-14T10:09:44.473Z,48.01
2018-07-14T10:12:13.788Z,48.37
2018-07-14T10:14:43.040Z,48.63
2018-07-14T10:17:12.023Z,48.65
2018-07-14T10:19:40.789Z,48.87
2018-07-14T10:22:09.990Z,49.05
2018-07-14T10:24:40.131Z,49.32
2018-07-14T10:27:08.810Z,49.50
2018-07-14T10:29:37.485Z,49.76
2018-07-14T10:32:06.172Z,48.62
2018-07-14T10:34:34.923Z,47.63
2018-07-14T10:37:03.646Z,47.82
2018-07-14T10:39:32.261Z,48.36
2018-07-14T10:42:01.014Z,48.38
2018-07-14T10:44:33.170Z,48.51
2018-07-14T10:47:02.093Z,48.83
2018-07-14T10:49:32.586Z,49.23
2018-07-14T10:52:01.835Z,49.40
2018-07-14T10:54:30.784Z,49.43
2018-07-14T10:56:59.708Z,49.70
2018-07-14T10:59:28.762Z,49.89
2018-07-14T11:01:57.815Z,49.98
2018-07-14T11:04:26.760Z,49.22
2018-07-14T11:06:55.570Z,48.45
2018-07-14T11:09:24.533Z,47.94
2018-07-14T11:11:53.489Z,46.61
2018-07-14T11:14:22.476Z,46.31
2018-07-14T11:16:51.266Z,46.87
2018-07-14T11:19:20.100Z,47.69
2018-07-14T11:21:48.835Z,48.26
2018-07-14T11:24:17.622Z,48.65
2018-07-14T11:26:46.314Z,48.93
2018-07-14T11:29:15.078Z,48.97
2018-07-14T11:31:43.728Z,48.54
2018-07-14T11:34:12.369Z,47.84
2018-07-14T11:36:41.029Z,46.96
2018-07-14T11:39:09.836Z,45.76
2018-07-14T11:41:38.476Z,44.61
2018-07-14T11:44:07.166Z,43.41
2018-07-14T11:46:35.909Z,42.37
2018-07-14T11:49:04.553Z,41.57
2018-07-14T11:51:33.421Z,41.19
2018-07-14T11:54:02.224Z,40.67
2018-07-14T11:56:30.902Z,40.21
2018-07-14T11:58:59.622Z,39.74
2018-07-14T12:01:28.302Z,39.47
2018-07-14T12:03:57.006Z,39.27
2018-07-14T12:06:25.719Z,39.11
2018-07-14T12:08:54.416Z,38.89
2018-07-14T12:11:23.328Z,38.64
2018-07-14T12:13:52.072Z,38.37
2018-07-14T12:16:20.729Z,38.15
2018-07-14T12:18:49.421Z,37.83
2018-07-14T12:21:18.135Z,37.51
2018-07-14T12:23:46.779Z,37.16
2018-07-14T12:26:15.367Z,36.80
2018-07-14T12:28:44.049Z,36.66
2018-07-14T12:31:12.798Z,36.58
2018-07-14T12:33:41.487Z,36.63
2018-07-14T12:36:10.084Z,36.77
2018-07-14T12:38:38.777Z,36.92
2018-07-14T12:41:07.602Z,36.87
2018-07-14T12:43:36.129Z,36.83
2018-07-14T12:46:04.783Z,36.83
2018-07-14T12:48:33.392Z,36.89
2018-07-14T12:51:02.092Z,37.05
2018-07-14T12:53:30.766Z,37.17
2018-07-14T12:55:59.407Z,37.19
2018-07-14T12:58:28.065Z,37.03
2018-07-14T13:00:56.691Z,36.91
2018-07-14T13:03:25.356Z,36.83
2018-07-14T13:05:53.992Z,36.68
2018-07-14T13:08:22.618Z,36.54
2018-07-14T13:10:51.283Z,36.43
2018-07-14T13:13:19.928Z,36.38
2018-07-14T13:15:48.589Z,36.37
2018-07-14T13:18:17.126Z,36.32
2018-07-14T13:20:45.858Z,36.30
2018-07-14T13:23:14.586Z,36.23
2018-07-14T13:25:43.224Z,36.23
2018-07-14T13:28:11.901Z,36.26
2018-07-14T13:30:40.621Z,36.31
2018-07-14T13:33:09.378Z,36.26
2018-07-14T13:35:38.116Z,36.14
2018-07-14T13:38:06.923Z,36.07
2018-07-14T13:40:35.677Z,35.93
2018-07-14T13:43:04.437Z,35.87
2018-07-14T13:45:33.870Z,35.82
2018-07-14T13:48:02.468Z,35.69
2018-07-14T13:50:31.142Z,35.57
2018-07-14T13:52:59.799Z,35.41
2018-07-14T13:55:29.481Z,35.40
2018-07-14T13:57:58.407Z,35.34
2018-07-14T14:00:27.202Z,35.13
2018-07-14T14:02:55.955Z,34.95
2018-07-14T14:05:24.899Z,34.90
2018-07-14T14:07:53.951Z,34.88
2018-07-14T14:10:22.567Z,34.81
2018-07-14T14:12:51.231Z,34.72
2018-07-14T14:15:19.930Z,34.74
2018-07-14T14:17:48.775Z,34.75
2018-07-14T14:20:17.708Z,34.79
2018-07-14T14:22:46.514Z,34.81
2018-07-14T14:25:15.381Z,34.78
2018-07-14T14:27:44.225Z,34.73
2018-07-14T14:30:12.926Z,34.68
2018-07-14T14:32:41.577Z,34.74
2018-07-14T14:35:10.382Z,34.76
2018-07-14T14:37:39.016Z,34.72
2018-07-14T14:40:07.836Z,34.63
2018-07-14T14:42:36.486Z,34.47
2018-07-14T14:45:05.527Z,34.41
2018-07-14T14:47:34.296Z,34.39
2018-07-14T14:50:03.427Z,34.32
2018-07-14T14:52:32.437Z,34.28
2018-07-14T14:55:01.104Z,34.17
2018-07-14T14:57:30.030Z,34.05
2018-07-14T14:59:58.648Z,33.99
2018-07-14T15:02:27.293Z,33.96
2018-07-14T15:04:56.344Z,33.98
2018-07-14T15:07:25.169Z,34.01
2018-07-14T15:09:54.272Z,34.07
2018-07-14T15:12:23.055Z,34.08
2018-07-14T15:14:51.909Z,34.05
2018-07-14T15:17:21.019Z,34.09
2018-07-14T15:19:49.905Z,34.10
2018-07-14T15:22:18.697Z,34.11
2018-07-14T15:24:47.686Z,34.08
2018-07-14T15:27:17.701Z,34.07
2018-07-14T15:29:46.395Z,33.97
2018-07-14T15:32:15.600Z,33.93
2018-07-14T15:34:44.601Z,33.83
2018-07-14T15:37:13.536Z,33.73
2018-07-14T15:39:42.326Z,33.68
2018-07-14T15:42:11.065Z,33.62
2018-07-14T15:44:40.192Z,33.58
2018-07-14T15:47:09.165Z,33.61
2018-07-14T15:49:37.847Z,33.60
2018-07-14T15:52:06.700Z,33.58
2018-07-14T15:54:35.511Z,33.57
2018-07-14T15:57:04.290Z,33.56
2018-07-14T15:59:33.084Z,33.52
2018-07-14T16:02:02.034Z,33.43
2018-07-14T16:04:30.760Z,33.28
2018-07-14T16:06:59.754Z,33.17
2018-07-14T16:09:28.486Z,33.08
2018-07-14T16:11:57.329Z,32.98
2018-07-14T16:14:26.058Z,32.90
2018-07-14T16:16:54.831Z,32.80
2018-07-14T16:19:23.903Z,32.79
2018-07-14T16:21:52.581Z,32.77
2018-07-14T16:24:21.388Z,32.78
2018-07-14T16:26:50.219Z,32.77
2018-07-14T16:29:18.807Z,32.78
2018-07-14T16:31:47.681Z,32.73
2018-07-14T16:34:16.336Z,32.69
2018-07-14T16:36:45.052Z,32.59
2018-07-14T16:39:13.787Z,32.45
2018-07-14T16:41:42.496Z,32.36
2018-07-14T16:44:11.184Z,32.34
2018-07-14T16:46:40.066Z,32.32
2018-07-14T16:49:08.727Z,32.30
2018-07-14T16:51:38.220Z,32.30
2018-07-14T16:54:10.402Z,32.32
2018-07-14T16:56:39.149Z,32.31
2018-07-14T16:59:07.847Z,32.30
2018-07-14T17:01:36.564Z,32.26
2018-07-14T17:04:05.317Z,32.20
2018-07-14T17:06:33.953Z,32.17
2018-07-14T17:09:02.714Z,32.16
2018-07-14T17:11:31.474Z,32.14
2018-07-14T17:14:00.496Z,32.07
2018-07-14T17:16:29.602Z,31.98
2018-07-14T17:18:58.478Z,31.95
2018-07-14T17:21:27.773Z,31.86
2018-07-14T17:23:56.623Z,31.81
2018-07-14T17:26:25.356Z,31.76
2018-07-14T17:28:54.080Z,31.68
2018-07-14T17:31:22.740Z,31.64
2018-07-14T17:33:51.395Z,31.60
2018-07-14T17:36:20.448Z,31.52
2018-07-14T17:38:49.482Z,31.44
2018-07-14T17:41:18.254Z,31.36
2018-07-14T17:43:48.502Z,31.29
2018-07-14T17:46:18.243Z,31.24
2018-07-14T17:48:46.975Z,31.17
2018-07-14T17:51:15.981Z,31.10
2018-07-14T17:53:45.304Z,31.03
2018-07-14T17:56:14.038Z,30.97
2018-07-14T17:58:42.721Z,30.90
2018-07-14T18:01:11.323Z,30.81
2018-07-14T18:03:42.176Z,30.72
2018-07-14T18:06:11.748Z,29.90
2018-07-14T18:08:40.671Z,30.59
2018-07-14T18:11:09.528Z,30.52
2018-07-14T18:13:38.296Z,30.47
2018-07-14T18:16:06.999Z,30.42
2018-07-14T18:18:36.516Z,30.38
2018-07-14T18:21:05.374Z,30.34
2018-07-14T18:23:34.295Z,30.30
2018-07-14T18:26:03.159Z,30.26
2018-07-14T18:28:31.995Z,30.18
2018-07-14T18:31:01.463Z,30.13
2018-07-14T18:33:30.228Z,30.09
2018-07-14T18:35:59.382Z,30.05
2018-07-14T18:38:27.989Z,29.99
2018-07-14T18:40:56.857Z,29.93
2018-07-14T18:43:26.077Z,29.86
2018-07-14T18:45:54.684Z,29.80
2018-07-14T18:48:24.267Z,29.73
2018-07-14T18:50:52.917Z,29.63
2018-07-14T18:53:22.013Z,29.52
2018-07-14T18:55:50.877Z,29.44
2018-07-14T18:58:19.594Z,29.37
2018-07-14T19:00:48.333Z,29.33
2018-07-14T19:03:17.112Z,29.31
2018-07-14T19:05:45.939Z,29.24
2018-07-14T19:08:14.774Z,29.15
2018-07-14T19:10:43.541Z,29.07
2018-07-14T19:13:12.576Z,28.99
2018-07-14T19:15:41.592Z,28.91
2018-07-14T19:18:10.833Z,28.82
2018-07-14T19:20:39.706Z,28.75
2018-07-14T19:23:08.527Z,28.67
2018-07-14T19:25:40.988Z,28.59
2018-07-14T19:28:09.956Z,28.51
2018-07-14T19:30:38.743Z,28.42
2018-07-14T19:33:07.526Z,28.35
2018-07-14T19:35:36.357Z,28.28
2018-07-14T19:38:05.374Z,28.22
2018-07-14T19:40:34.394Z,28.14
2018-07-14T19:43:03.260Z,28.07
2018-07-14T19:45:32.120Z,27.99
2018-07-14T19:48:01.014Z,27.91
2018-07-14T19:50:29.927Z,27.83
2018-07-14T19:52:58.659Z,27.75
2018-07-14T19:55:27.658Z,27.68
2018-07-14T19:57:56.641Z,27.61
2018-07-14T20:00:25.315Z,27.53
2018-07-14T20:02:54.489Z,27.46
2018-07-14T20:05:23.598Z,27.39
2018-07-14T20:07:52.684Z,27.33
2018-07-14T20:10:23.209Z,27.24
2018-07-14T20:12:52.553Z,27.19
2018-07-14T20:15:21.609Z,27.12
2018-07-14T20:20:52.827Z,26.97
2018-07-14T20:23:22.018Z,26.91
2018-07-14T20:25:51.296Z,26.85
2018-07-14T20:28:24.375Z,26.79
2018-07-14T20:30:56.349Z,26.74
2018-07-14T20:33:25.693Z,26.66
2018-07-14T20:35:54.693Z,26.59
2018-07-14T20:38:23.717Z,26.50
2018-07-14T20:40:52.950Z,26.43
2018-07-14T20:43:21.903Z,26.36
2018-07-14T20:45:51.008Z,26.30
2018-07-14T20:48:20.149Z,26.24
2018-07-14T20:50:49.426Z,26.17
2018-07-14T20:53:23.292Z,26.11
2018-07-14T20:55:52.222Z,26.04
2018-07-14T20:58:27.747Z,25.97
2018-07-14T21:04:14.689Z,25.83
2018-07-14T21:06:44.194Z,25.75
2018-07-14T21:09:13.223Z,25.70
2018-07-14T21:11:42.232Z,25.62
2018-07-14T21:14:11.212Z,25.56
2018-07-14T21:16:40.263Z,25.49
2018-07-14T21:19:09.479Z,25.44
2018-07-14T21:21:38.525Z,25.38
2018-07-14T21:24:07.504Z,25.34
2018-07-14T21:26:36.458Z,25.30
2018-07-14T21:29:05.404Z,25.27
2018-07-14T21:31:34.261Z,25.24
2018-07-14T21:34:03.267Z,25.20
2018-07-14T21:36:31.973Z,24.91
2018-07-14T21:39:00.695Z,25.12
2018-07-14T21:41:29.376Z,25.07
2018-07-14T21:43:58.033Z,25.03
2018-07-14T21:52:07.702Z,24.81
2018-07-14T21:54:36.396Z,24.76
2018-07-14T21:57:05.095Z,24.72
2018-07-14T21:59:33.822Z,24.68
2018-07-14T22:02:06.338Z,24.64
2018-07-14T22:04:35.743Z,24.60
2018-07-14T22:07:04.392Z,24.54
2018-07-14T22:09:33.149Z,24.51
2018-07-14T22:12:01.809Z,24.46
2018-07-14T22:14:30.487Z,24.41
2018-07-14T22:16:59.230Z,24.35
2018-07-14T22:19:27.871Z,24.30
2018-07-14T22:21:56.563Z,24.25
2018-07-14T22:24:25.148Z,24.19
2018-07-14T22:26:53.837Z,24.13
2018-07-14T22:29:22.617Z,24.10
2018-07-14T22:31:51.257Z,24.06
2018-07-14T22:34:19.915Z,24.02
2018-07-14T22:36:50.720Z,23.98
2018-07-14T22:39:19.546Z,23.94
2018-07-14T22:41:49.343Z,23.90
2018-07-14T22:44:18.879Z,23.86
2018-07-14T22:46:47.464Z,23.83
2018-07-14T22:49:16.044Z,23.80
2018-07-14T22:51:44.655Z,23.76
2018-07-14T22:54:13.341Z,23.71
2018-07-14T22:56:42.061Z,23.67
2018-07-14T22:59:10.738Z,23.63
2018-07-14T23:01:39.299Z,23.60
2018-07-14T23:04:07.812Z,23.53
2018-07-14T23:06:36.384Z,23.51
2018-07-14T23:09:06.875Z,23.48
2018-07-14T23:11:35.520Z,23.44
2018-07-14T23:14:04.126Z,23.41
2018-07-14T23:16:32.727Z,23.38
2018-07-14T23:19:01.397Z,23.35
2018-07-14T23:21:30.098Z,23.32
2018-07-14T23:23:58.811Z,23.27
2018-07-14T23:26:27.371Z,23.24
2018-07-14T23:28:55.991Z,23.20
2018-07-14T23:31:24.627Z,23.17
2018-07-14T23:33:53.315Z,23.15
2018-07-14T23:36:21.900Z,23.11
2018-07-14T23:38:50.531Z,23.07
2018-07-14T23:41:19.193Z,23.07
2018-07-14T23:43:47.724Z,23.04
2018-07-14T23:46:16.482Z,23.02
2018-07-14T23:48:45.014Z,22.99
2018-07-14T23:51:13.888Z,22.96
2018-07-14T23:53:42.553Z,22.93
2018-07-14T23:56:11.194Z,22.90
2018-07-14T23:58:39.805Z,22.87
